This is the latest recevied weather packets stored in our database for station/object SQ3VAS-10. If no packets are shown the sender has not sent any weather packets the latest 1 day(s).
| Time | Temp. | Humidity | Pressure | Rain* | Wind** | Luminosity | Snow |
|---|---|---|---|---|---|---|---|
| 1778118930 | 8.89° C | 85% | 1011.3 hPa | - | - | - | - |
| 1778118359 | 8.89° C | 84% | 1011.3 hPa | - | - | - | - |
| 1778117787 | 8.89° C | 85% | 1011.3 hPa | - | - | - | - |
| 1778117215 | 8.89° C | 85% | 1011.3 hPa | - | - | - | - |
| 1778116072 | 8.89° C | 85% | 1011.2 hPa | - | - | - | - |
| 1778115500 | 8.89° C | 85% | 1010.9 hPa | - | - | - | - |
| 1778114928 | 8.89° C | 85% | 1010.9 hPa | - | - | - | - |
| 1778113785 | 8.89° C | 86% | 1010.8 hPa | - | - | - | - |
| 1778113212 | 9.44° C | 84% | 1010.8 hPa | - | - | - | - |
| 1778108065 | 9.44° C | 84% | 1010.4 hPa | - | - | - | - |
| 1778105776 | 9.44° C | 84% | 1010.6 hPa | - | - | - | - |
| 1778105204 | 9.44° C | 84% | 1010.6 hPa | - | - | - | - |
| 1778104632 | 9.44° C | 84% | 1010.5 hPa | - | - | - | - |
| 1778101773 | 9.44° C | 84% | 1010.1 hPa | - | - | - | - |
| 1778099485 | 10° C | 84% | 1009.6 hPa | - | - | - | - |
| 1778097770 | 10° C | 84% | 1009.6 hPa | - | - | - | - |
| 1778093766 | 10.56° C | 87% | 1009.2 hPa | - | - | - | - |
| 1778093194 | 10.56° C | 87% | 1009 hPa | - | - | - | - |
| 1778087478 | 12.22° C | 82% | 1008.3 hPa | - | - | - | - |
| 1778086906 | 12.78° C | 81% | 1008.2 hPa | - | - | - | - |
| 1778081756 | 12.78° C | 78% | 1008 hPa | - | - | - | - |
| 1778078321 | 12.78° C | 84% | 1007.7 hPa | - | - | - | - |
| 1778076034 | 12.78° C | 84% | 1007.4 hPa | - | - | - | - |
| 1778074887 | 12.22° C | 88% | 1007.5 hPa | - | - | - | - |
| 1778073743 | 11.67° C | 89% | 1007.3 hPa | - | - | - | - |
* Rain since midnight (hover to see other rain measurements)
** Current wind speed in m/s (hover to see current wind gust speed)